Time;durP1;ratioP1;P1;durP2;ratioP2;P2;SDS_P1;SDS_P2;PMS_P1;PMS_P2;Temp;Humidity;BMP_temperature;BMP_pressure;BME280_temperature;BME280_humidity;BME280_pressure;Samples;Min_cycle;Max_cycle;Signal;HPM_P1;HPM_P2
2022/07/20 00:00:26;;;;;;;8.37;3.53;;;;;;;27.14;28.97;101071.66;5038119;28;20295;-45
2022/07/20 00:02:51;;;;;;;6.67;3.00;;;;;;;27.13;28.95;101072.72;5037282;28;20307;-46
2022/07/20 00:05:16;;;;;;;9.17;3.13;;;;;;;27.07;30.05;101073.59;5038037;28;20276;-45
2022/07/20 00:07:42;;;;;;;5.95;2.90;;;;;;;27.01;30.49;101074.47;5037342;28;20296;-48
2022/07/20 00:12:51;;;;;;;10.48;3.20;;;;;;;26.89;30.00;101071.63;5037705;28;20263;-45
2022/07/20 00:15:17;;;;;;;5.40;2.70;;;;;;;26.86;30.54;101072.06;5036414;28;20112;-46
2022/07/20 00:17:42;;;;;;;5.93;2.97;;;;;;;26.82;30.37;101077.13;5036809;28;20264;-46
2022/07/20 00:20:09;;;;;;;7.63;3.08;;;;;;;26.73;30.84;101067.53;5036443;28;20287;-45
2022/07/20 00:22:35;;;;;;;5.88;3.10;;;;;;;26.71;29.88;101070.50;5037775;28;20486;-46
2022/07/20 00:25:01;;;;;;;6.00;2.78;;;;;;;26.64;31.25;101069.69;5037677;28;20116;-45
2022/07/20 00:27:26;;;;;;;9.43;3.70;;;;;;;26.60;31.17;101073.88;5040593;28;20089;-46
2022/07/20 00:29:52;;;;;;;5.70;3.08;;;;;;;26.48;31.26;101073.75;5037553;28;20064;-45
2022/07/20 00:32:17;;;;;;;7.07;2.97;;;;;;;26.46;30.98;101075.00;5038096;28;20029;-47
2022/07/20 00:34:42;;;;;;;6.83;2.83;;;;;;;26.37;31.48;101094.31;5042227;28;20026;-46
2022/07/20 00:37:07;;;;;;;8.90;3.67;;;;;;;26.26;31.32;101149.44;5038050;28;20375;-45
2022/07/20 00:39:33;;;;;;;9.03;3.67;;;;;;;26.17;31.44;101090.84;5031133;28;20093;-45
2022/07/20 00:41:58;;;;;;;7.00;3.30;;;;;;;26.12;31.21;101086.03;5037420;28;20893;-45
2022/07/20 00:44:23;;;;;;;11.47;3.53;;;;;;;26.09;31.49;101088.38;5036938;28;20541;-45
2022/07/20 00:46:48;;;;;;;9.50;3.10;;;;;;;26.02;32.24;101093.81;5048453;28;20323;-45
2022/07/20 00:49:14;;;;;;;10.38;3.28;;;;;;;25.93;32.30;101109.53;5036488;28;20296;-45
2022/07/20 00:51:42;;;;;;;8.93;3.40;;;;;;;25.85;32.25;101128.81;5038192;28;20040;-47
2022/07/20 00:54:08;;;;;;;8.05;3.35;;;;;;;25.83;32.05;101114.56;5020651;28;20119;-45
2022/07/20 00:56:34;;;;;;;7.43;3.03;;;;;;;25.79;32.91;101105.97;5037551;28;20512;-45
2022/07/20 00:59:05;;;;;;;14.38;3.25;;;;;;;25.67;32.78;101154.75;5049263;28;20032;-45
2022/07/20 01:01:31;;;;;;;11.50;3.50;;;;;;;25.61;32.58;101103.06;5039329;28;20234;-45
2022/07/20 01:03:57;;;;;;;10.88;3.28;;;;;;;25.56;33.07;101114.59;5037700;28;20029;-45
2022/07/20 01:06:22;;;;;;;7.95;3.45;;;;;;;25.48;33.82;101107.50;5038277;28;20044;-45
2022/07/20 01:08:49;;;;;;;10.02;3.20;;;;;;;25.50;32.84;101101.84;5038232;28;20048;-45
2022/07/20 01:11:14;;;;;;;10.63;3.45;;;;;;;25.43;33.40;101106.44;5035253;28;20475;-46
2022/07/20 01:13:39;;;;;;;9.48;3.65;;;;;;;25.42;33.64;101115.66;5038241;28;20057;-45
2022/07/20 01:16:05;;;;;;;10.43;3.67;;;;;;;25.37;32.81;101097.25;5038733;28;20116;-45
2022/07/20 01:18:30;;;;;;;6.32;3.10;;;;;;;25.25;34.22;101107.88;5037811;28;20335;-45
2022/07/20 01:20:59;;;;;;;9.33;3.40;;;;;;;25.23;34.14;101100.97;5038494;28;20029;-44
2022/07/20 01:23:24;;;;;;;12.77;3.67;;;;;;;25.17;33.64;101093.66;5038588;28;20343;-45
2022/07/20 01:25:50;;;;;;;11.67;3.80;;;;;;;25.15;33.82;101093.88;5038633;28;20380;-45
2022/07/20 01:28:15;;;;;;;10.23;3.90;;;;;;;25.06;33.55;101095.97;5040272;28;20296;-44
2022/07/20 01:30:41;;;;;;;10.20;3.60;;;;;;;25.06;33.60;101092.38;5041327;28;20041;-45
2022/07/20 01:33:07;;;;;;;7.72;3.45;;;;;;;25.04;33.18;101091.75;5047685;28;20029;-45
2022/07/20 01:35:32;;;;;;;9.18;3.40;;;;;;;25.03;32.99;101087.34;5051406;28;20155;-48
2022/07/20 01:37:57;;;;;;;9.43;3.30;;;;;;;24.98;33.10;101085.28;5050686;28;20033;-47
2022/07/20 01:40:23;;;;;;;8.65;3.30;;;;;;;24.98;34.05;101093.44;5045928;28;20028;-46
2022/07/20 01:42:48;;;;;;;7.90;3.25;;;;;;;24.99;33.79;101084.22;5040446;28;20029;-45
2022/07/20 01:45:14;;;;;;;9.07;3.78;;;;;;;24.94;33.52;101084.84;5049603;28;20026;-46
2022/07/20 01:47:40;;;;;;;6.63;3.40;;;;;;;24.89;33.92;101090.06;5044331;28;20029;-45
2022/07/20 01:50:06;;;;;;;11.35;3.50;;;;;;;24.85;34.87;101096.13;5041429;28;20033;-47
2022/07/20 01:52:31;;;;;;;8.98;3.50;;;;;;;24.82;35.32;101104.69;5039318;28;20048;-46
2022/07/20 01:54:56;;;;;;;6.50;3.30;;;;;;;24.81;34.44;101108.44;5049748;28;20029;-45
2022/07/20 01:57:21;;;;;;;7.43;3.60;;;;;;;24.79;34.89;101113.25;5058751;28;20350;-45
2022/07/20 01:59:47;;;;;;;10.73;3.90;;;;;;;24.70;35.00;101118.03;5052517;28;20288;-44
2022/07/20 02:02:12;;;;;;;10.27;3.70;;;;;;;24.66;35.56;101136.59;5059305;28;20537;-45
2022/07/20 02:04:37;;;;;;;8.15;3.83;;;;;;;24.59;35.07;101153.94;5044564;28;20291;-45
2022/07/20 02:07:02;;;;;;;7.60;4.07;;;;;;;24.51;35.00;101163.88;5050265;28;20030;-45
2022/07/20 02:09:28;;;;;;;9.30;3.78;;;;;;;24.44;35.42;101164.91;5052267;28;20288;-45
2022/07/20 02:11:53;;;;;;;7.13;3.80;;;;;;;24.35;35.59;101164.25;5050864;28;20022;-47
2022/07/20 02:14:18;;;;;;;7.37;3.87;;;;;;;24.28;36.40;101168.78;5049630;28;20772;-45
2022/07/20 02:16:44;;;;;;;8.40;4.57;;;;;;;24.27;36.90;101158.97;5050905;28;20279;-45
2022/07/20 02:19:09;;;;;;;11.17;4.83;;;;;;;24.25;37.64;101158.31;5050280;28;20029;-45
2022/07/20 02:21:34;;;;;;;12.93;5.72;;;;;;;24.19;38.20;101152.66;5045431;28;20317;-45
2022/07/20 02:24:00;;;;;;;12.15;6.03;;;;;;;24.18;38.99;101156.41;5048384;28;20044;-44
2022/07/20 02:26:25;;;;;;;15.45;5.60;;;;;;;24.11;39.58;101162.84;5057178;28;20108;-45
2022/07/20 02:28:51;;;;;;;7.10;5.53;;;;;;;24.08;39.50;101158.66;5051896;28;20034;-45
2022/07/20 02:31:21;;;;;;;12.95;6.82;;;;;;;24.05;40.19;101160.91;5050243;28;20039;-45
2022/07/20 02:33:47;;;;;;;13.90;7.30;;;;;;;24.01;40.50;101157.75;5051928;28;20065;-45
2022/07/20 02:36:12;;;;;;;16.95;7.72;;;;;;;23.92;41.36;101151.66;5050914;28;20072;-45
2022/07/20 02:38:38;;;;;;;12.82;7.78;;;;;;;23.93;42.50;101152.50;5049743;28;20091;-44
2022/07/20 02:41:03;;;;;;;16.20;8.98;;;;;;;23.86;43.51;101163.28;5050194;28;20037;-45
2022/07/20 02:43:29;;;;;;;15.65;10.40;;;;;;;23.76;45.21;101171.75;5050302;28;20018;-45
2022/07/20 02:45:54;;;;;;;20.27;11.05;;;;;;;23.74;45.80;101170.28;5050860;28;20036;-45
2022/07/20 02:48:19;;;;;;;21.27;12.47;;;;;;;23.71;46.80;101170.66;5049395;28;20029;-44
2022/07/20 02:50:45;;;;;;;20.25;11.80;;;;;;;23.65;47.00;101165.00;5049988;28;20683;-45
2022/07/20 02:53:12;;;;;;;25.95;13.25;;;;;;;23.64;47.64;101167.91;5049290;28;20369;-45
2022/07/20 02:55:39;;;;;;;18.98;12.82;;;;;;;23.67;47.35;101161.25;5048931;28;20037;-44
2022/07/20 02:58:05;;;;;;;23.58;13.38;;;;;;;23.64;48.39;101159.75;5049742;28;20068;-45
2022/07/20 03:00:30;;;;;;;24.33;14.48;;;;;;;23.57;49.21;101167.84;5050190;28;20029;-45
2022/07/20 03:02:56;;;;;;;19.35;14.00;;;;;;;23.60;49.21;101172.88;5048528;28;20029;-45
2022/07/20 03:05:21;;;;;;;23.73;15.35;;;;;;;23.52;50.36;101178.44;5049513;28;20029;-45
2022/07/20 03:07:47;;;;;;;22.15;16.25;;;;;;;23.48;50.59;101182.56;5048902;28;20093;-45
2022/07/20 03:10:12;;;;;;;20.80;14.95;;;;;;;23.45;50.79;101174.84;5053296;28;20475;-44
2022/07/20 03:12:38;;;;;;;28.27;16.85;;;;;;;23.38;51.80;101169.38;5052253;28;20040;-45
2022/07/20 03:15:04;;;;;;;25.15;17.00;;;;;;;23.31;52.18;101164.91;5045136;28;20018;-45
2022/07/20 03:17:30;;;;;;;25.52;15.65;;;;;;;23.36;52.26;101159.72;5046620;28;20030;-45
2022/07/20 03:19:55;;;;;;;24.85;16.92;;;;;;;23.31;52.68;101167.59;5041401;28;20053;-46
2022/07/20 03:22:20;;;;;;;28.48;17.45;;;;;;;23.27;52.68;101175.28;5040989;28;20026;-48
2022/07/20 03:24:45;;;;;;;27.50;17.73;;;;;;;23.25;52.83;101183.63;5043467;28;20021;-48
2022/07/20 03:27:11;;;;;;;27.17;17.90;;;;;;;23.23;53.53;101195.66;5039747;28;20299;-45
2022/07/20 03:29:36;;;;;;;25.52;17.73;;;;;;;23.20;53.89;101198.75;5040117;28;20316;-46
2022/07/20 03:32:03;;;;;;;26.55;17.85;;;;;;;23.16;54.29;101206.44;5039546;28;20052;-48
2022/07/20 03:34:29;;;;;;;25.85;17.38;;;;;;;23.15;53.50;101209.34;5038562;28;20021;-45
2022/07/20 03:36:54;;;;;;;27.85;18.63;;;;;;;23.09;54.54;101213.66;5045848;28;20025;-46
2022/07/20 03:39:20;;;;;;;24.35;18.33;;;;;;;23.11;54.45;101217.00;5039878;28;20387;-46
2022/07/20 03:41:45;;;;;;;29.83;19.13;;;;;;;23.07;55.14;101218.44;5048787;28;20041;-46
2022/07/20 03:44:10;;;;;;;27.10;19.35;;;;;;;23.01;55.36;101228.13;5026231;28;20032;-46
2022/07/20 03:46:36;;;;;;;31.02;20.02;;;;;;;22.98;55.99;101230.38;5045518;28;20033;-45
2022/07/20 03:49:01;;;;;;;25.08;19.65;;;;;;;22.94;56.43;101224.50;5040082;28;20056;-46
2022/07/20 03:51:26;;;;;;;33.97;20.52;;;;;;;22.91;56.07;101239.28;5041235;28;20116;-47
2022/07/20 03:53:52;;;;;;;33.53;21.58;;;;;;;22.85;57.29;101248.16;5040193;28;20046;-46
2022/07/20 03:56:17;;;;;;;27.77;21.80;;;;;;;22.81;57.05;101249.53;5039395;28;20112;-46
2022/07/20 03:58:42;;;;;;;29.13;21.15;;;;;;;22.80;57.33;101255.16;5057770;28;20051;-46
2022/07/20 04:01:08;;;;;;;30.00;21.75;;;;;;;22.80;56.92;101265.97;5041069;28;20104;-46
2022/07/20 04:03:33;;;;;;;28.00;20.93;;;;;;;22.79;57.33;101265.16;5044866;28;20045;-47
2022/07/20 04:05:59;;;;;;;34.30;22.08;;;;;;;22.68;57.99;101263.78;5040671;28;20331;-46
2022/07/20 04:08:25;;;;;;;32.15;22.45;;;;;;;22.67;58.13;101267.50;5040315;28;20372;-46
2022/07/20 04:10:50;;;;;;;28.30;21.37;;;;;;;22.68;57.97;101277.31;5037558;28;20033;-47
2022/07/20 04:13:15;;;;;;;34.87;22.30;;;;;;;22.68;57.94;101277.31;5038314;28;20359;-46
2022/07/20 04:15:40;;;;;;;30.40;21.87;;;;;;;22.68;58.06;101269.19;5042725;28;20844;-47
2022/07/20 04:18:06;;;;;;;26.23;20.43;;;;;;;22.68;57.42;101271.88;5043851;28;20284;-44
2022/07/20 04:20:31;;;;;;;29.87;20.60;;;;;;;22.66;57.59;101275.78;5044135;28;20300;-45
2022/07/20 04:22:56;;;;;;;31.55;20.58;;;;;;;22.67;58.01;101282.91;5045723;28;20284;-46
2022/07/20 04:25:22;;;;;;;30.07;19.70;;;;;;;22.67;58.00;101285.59;5045222;28;20037;-45
2022/07/20 04:27:49;;;;;;;27.48;19.55;;;;;;;22.69;57.87;101289.78;5053800;28;20293;-45
2022/07/20 04:30:15;;;;;;;30.48;19.90;;;;;;;22.67;57.78;101286.44;5046181;28;20029;-49
2022/07/20 04:32:41;;;;;;;27.98;20.95;;;;;;;22.69;57.92;101291.69;5045364;28;20060;-45
2022/07/20 04:35:07;;;;;;;29.88;19.42;;;;;;;22.73;57.58;101293.81;5043140;28;20057;-46
2022/07/20 04:37:32;;;;;;;27.70;19.92;;;;;;;22.70;57.88;101298.78;5043367;28;20045;-45
2022/07/20 04:39:57;;;;;;;26.27;18.73;;;;;;;22.75;57.39;101295.50;5037573;28;20025;-46
2022/07/20 04:42:22;;;;;;;26.93;18.97;;;;;;;22.78;57.21;101298.66;5036322;28;20299;-48
2022/07/20 04:44:48;;;;;;;28.27;18.20;;;;;;;22.81;57.33;101308.28;5036888;28;20275;-46
2022/07/20 04:47:13;;;;;;;29.77;18.40;;;;;;;22.85;56.88;101309.63;5040494;28;20378;-49
2022/07/20 04:49:38;;;;;;;21.65;17.40;;;;;;;22.86;57.25;101311.28;5019131;28;20284;-46
2022/07/20 04:52:04;;;;;;;26.73;18.57;;;;;;;22.88;56.83;101312.78;5036917;28;20033;-46
2022/07/20 04:54:29;;;;;;;25.30;17.30;;;;;;;22.85;57.56;101321.28;5037233;28;20283;-46
2022/07/20 04:56:54;;;;;;;26.65;18.45;;;;;;;22.83;57.52;101323.34;5038932;28;20034;-46
2022/07/20 04:59:20;;;;;;;28.40;17.15;;;;;;;22.86;56.92;101330.22;5039730;28;20091;-47
2022/07/20 05:01:45;;;;;;;23.63;17.67;;;;;;;22.87;56.36;101319.22;5042318;28;20152;-47
2022/07/20 05:04:11;;;;;;;27.73;17.70;;;;;;;22.81;56.80;101311.81;5048635;28;20095;-47
2022/07/20 05:06:36;;;;;;;25.00;17.65;;;;;;;22.85;57.17;101315.03;5048655;28;20034;-46
2022/07/20 05:09:03;;;;;;;25.42;16.73;;;;;;;22.87;56.42;101316.50;5046419;28;20377;-47
2022/07/20 05:11:29;;;;;;;23.80;17.65;;;;;;;22.86;56.95;101311.28;5046931;28;20029;-46
2022/07/20 05:13:55;;;;;;;26.20;16.50;;;;;;;22.91;56.38;101312.41;5048043;28;20041;-46
2022/07/20 05:16:20;;;;;;;23.38;15.95;;;;;;;22.96;56.23;101316.41;5046348;28;20545;-47
2022/07/20 05:18:45;;;;;;;27.60;16.47;;;;;;;23.02;56.34;101323.78;5042699;28;20041;-47
2022/07/20 05:21:11;;;;;;;22.13;16.50;;;;;;;23.02;55.76;101324.63;5042120;28;20284;-47
2022/07/20 05:23:36;;;;;;;27.55;16.30;;;;;;;23.03;56.55;101320.91;5043434;28;20726;-46
2022/07/20 05:26:03;;;;;;;26.65;16.20;;;;;;;23.04;56.38;101338.00;5044056;28;20064;-47
2022/07/20 05:28:28;;;;;;;21.67;16.10;;;;;;;23.11;56.25;101347.06;5048750;28;20037;-47
2022/07/20 05:30:53;;;;;;;21.83;16.05;;;;;;;23.15;56.11;101358.38;5045021;28;20024;-46
2022/07/20 05:33:19;;;;;;;27.15;16.45;;;;;;;23.16;55.78;101347.34;5040105;28;20029;-45
2022/07/20 05:35:44;;;;;;;19.98;14.77;;;;;;;23.25;55.65;101357.06;5036068;28;20021;-46
2022/07/20 05:38:10;;;;;;;25.83;15.63;;;;;;;23.32;55.67;101354.44;5031843;28;20040;-44
2022/07/20 05:40:35;;;;;;;22.30;15.88;;;;;;;23.48;55.53;101364.19;5030118;28;20024;-45
2022/07/20 05:43:01;;;;;;;22.65;15.15;;;;;;;23.58;54.76;101377.47;5029553;28;20437;-48
2022/07/20 05:45:26;;;;;;;24.20;15.67;;;;;;;23.70;54.41;101394.94;5029926;28;20181;-45
2022/07/20 05:47:51;;;;;;;27.48;15.35;;;;;;;23.85;54.00;101392.22;5029972;28;20276;-47
2022/07/20 05:50:16;;;;;;;20.57;14.10;;;;;;;23.89;53.28;101388.06;5030138;28;20029;-45
2022/07/20 05:52:42;;;;;;;20.97;13.23;;;;;;;24.05;53.18;101400.56;5029035;28;20292;-45
2022/07/20 05:55:07;;;;;;;18.93;13.10;;;;;;;24.17;52.27;101409.03;5027467;28;20710;-46
2022/07/20 05:57:33;;;;;;;22.65;13.40;;;;;;;24.18;52.51;101411.53;5025915;28;20287;-46
2022/07/20 05:59:58;;;;;;;23.13;13.93;;;;;;;24.23;51.95;101415.53;5029698;28;20026;-48
2022/07/20 06:02:24;;;;;;;18.58;12.82;;;;;;;24.25;52.22;101422.47;5027650;28;20086;-47
2022/07/20 06:04:49;;;;;;;19.38;13.02;;;;;;;24.25;52.09;101424.31;5018303;28;20159;-48
2022/07/20 06:07:14;;;;;;;16.57;11.87;;;;;;;24.25;52.09;101435.19;5021853;28;20107;-46
2022/07/20 06:09:40;;;;;;;18.52;12.00;;;;;;;24.20;52.04;101438.50;5025246;28;20363;-48
2022/07/20 06:12:05;;;;;;;21.05;12.10;;;;;;;24.25;52.10;101429.75;5012458;28;20041;-46
2022/07/20 06:14:31;;;;;;;22.25;12.60;;;;;;;24.23;52.04;101445.41;5023128;28;20028;-47
2022/07/20 06:16:56;;;;;;;17.70;11.80;;;;;;;24.21;52.53;101456.44;5035579;28;20037;-45
2022/07/20 06:19:21;;;;;;;18.23;11.38;;;;;;;24.18;52.33;101459.53;5027359;28;20331;-48
2022/07/20 06:21:46;;;;;;;17.52;11.30;;;;;;;24.20;52.86;101457.50;5032265;28;20152;-50
2022/07/20 06:24:12;;;;;;;17.65;10.82;;;;;;;24.29;52.13;101469.91;5032482;28;20025;-48
2022/07/20 06:26:37;;;;;;;22.35;11.35;;;;;;;24.37;52.08;101474.38;5031687;28;20025;-49
2022/07/20 06:29:03;;;;;;;21.77;12.30;;;;;;;24.44;51.69;101483.41;5041452;28;20041;-47
2022/07/20 06:31:28;;;;;;;19.60;11.68;;;;;;;24.40;51.31;101490.28;5030279;28;20304;-46
2022/07/20 06:33:54;;;;;;;20.55;11.30;;;;;;;24.44;51.86;101501.59;5034412;28;20036;-47
2022/07/20 06:36:19;;;;;;;23.98;11.52;;;;;;;24.35;51.39;101507.13;5023913;28;20587;-45
2022/07/20 06:38:45;;;;;;;19.65;12.07;;;;;;;24.29;51.43;101517.94;5030131;28;20433;-49
2022/07/20 06:41:11;;;;;;;18.88;11.07;;;;;;;24.32;51.94;101520.25;5030589;28;20455;-44
2022/07/20 06:43:36;;;;;;;21.75;11.38;;;;;;;24.28;52.62;101532.53;5037252;28;20066;-45
2022/07/20 06:46:02;;;;;;;17.10;11.32;;;;;;;24.24;52.27;101539.38;5040917;28;20033;-48
2022/07/20 06:48:27;;;;;;;16.10;11.15;;;;;;;24.22;53.17;101533.31;5037333;28;20045;-45
2022/07/20 06:50:52;;;;;;;19.87;11.40;;;;;;;24.18;52.39;101524.69;5037141;28;20029;-46
2022/07/20 06:53:17;;;;;;;16.03;10.40;;;;;;;24.16;52.34;101533.03;5036284;28;20379;-44
2022/07/20 06:55:43;;;;;;;15.57;11.17;;;;;;;24.13;52.24;101536.13;5036369;28;20373;-47
2022/07/20 06:58:09;;;;;;;18.45;10.93;;;;;;;24.12;51.84;101545.28;5033837;28;20347;-45
2022/07/20 07:00:34;;;;;;;20.17;10.68;;;;;;;24.15;51.73;101550.34;5032856;28;20060;-45
2022/07/20 07:02:59;;;;;;;15.52;10.40;;;;;;;24.20;52.78;101550.63;5035559;28;20422;-45
2022/07/20 07:05:24;;;;;;;21.40;10.93;;;;;;;24.20;51.52;101550.63;5027819;28;20025;-46
2022/07/20 07:07:50;;;;;;;19.60;10.43;;;;;;;24.26;52.39;101562.56;5023960;28;20284;-45
2022/07/20 07:10:15;;;;;;;19.23;10.37;;;;;;;24.34;51.94;101548.06;5002942;28;20030;-45
2022/07/20 07:12:40;;;;;;;17.73;10.53;;;;;;;24.44;52.49;101534.16;5035499;28;20398;-45
2022/07/20 07:15:06;;;;;;;21.67;11.17;;;;;;;24.55;51.66;101534.53;5027531;28;20638;-45
2022/07/20 07:17:32;;;;;;;20.30;10.60;;;;;;;24.72;52.35;101531.56;5028814;28;20295;-46
2022/07/20 07:19:58;;;;;;;18.17;10.75;;;;;;;24.84;51.67;101543.56;5030206;28;20025;-44
2022/07/20 07:22:28;;;;;;;16.95;10.30;;;;;;;25.21;51.89;101538.03;5033838;28;20076;-47
2022/07/20 07:24:54;;;;;;;17.20;10.57;;;;;;;25.47;49.92;101540.13;5034959;28;20021;-45
2022/07/20 07:27:20;;;;;;;15.18;9.43;;;;;;;25.66;49.95;101549.44;5034041;28;20036;-45
2022/07/20 07:29:46;;;;;;;17.02;9.75;;;;;;;25.79;49.82;101565.00;5035400;28;20120;-46
2022/07/20 07:32:11;;;;;;;15.50;10.15;;;;;;;25.90;49.09;101574.50;5034379;28;20056;-45
2022/07/20 07:34:36;;;;;;;15.80;9.82;;;;;;;26.06;47.96;101570.59;5034880;28;20026;-44
2022/07/20 07:37:02;;;;;;;18.80;9.80;;;;;;;26.29;48.12;101582.00;5033870;28;20025;-45
2022/07/20 07:39:27;;;;;;;17.20;9.48;;;;;;;26.47;47.29;101586.03;5033467;28;20025;-46
2022/07/20 07:41:53;;;;;;;19.90;9.27;;;;;;;26.70;48.22;101586.53;5040861;28;20027;-44
2022/07/20 07:44:18;;;;;;;21.90;9.25;;;;;;;27.03;46.76;101591.22;5045095;28;20060;-46
2022/07/20 07:46:43;;;;;;;14.20;8.77;;;;;;;27.20;45.95;101602.53;5043459;28;20029;-45
2022/07/20 07:49:08;;;;;;;15.68;9.25;;;;;;;27.43;44.66;101604.88;5033752;28;20657;-46
2022/07/20 07:51:34;;;;;;;13.48;8.57;;;;;;;27.58;45.43;101601.03;5041515;28;20084;-47
2022/07/20 07:53:59;;;;;;;12.13;8.02;;;;;;;27.71;44.06;101597.47;5041104;28;20750;-45
2022/07/20 07:56:24;;;;;;;11.90;7.53;;;;;;;27.84;44.26;101603.72;5041986;28;20475;-45
2022/07/20 07:58:50;;;;;;;16.38;8.20;;;;;;;28.12;42.90;101594.44;5039815;28;20607;-45
2022/07/20 08:01:16;;;;;;;13.43;7.30;;;;;;;28.27;41.81;101596.06;5041923;28;20094;-45
2022/07/20 08:03:42;;;;;;;12.73;7.00;;;;;;;28.57;41.15;101591.69;5039388;28;20044;-44
2022/07/20 08:06:07;;;;;;;10.60;6.90;;;;;;;28.93;40.84;101575.72;5025285;28;20044;-44
2022/07/20 08:08:33;;;;;;;10.63;7.20;;;;;;;29.21;40.05;101575.31;5045911;28;20525;-44
2022/07/20 08:10:59;;;;;;;14.18;6.78;;;;;;;29.40;39.81;101565.22;5036820;28;20026;-44
2022/07/20 08:13:24;;;;;;;13.30;7.30;;;;;;;29.58;39.04;101558.94;5028028;28;20064;-45
2022/07/20 08:15:50;;;;;;;13.02;7.03;;;;;;;29.84;38.42;101555.09;5028552;28;20053;-45
2022/07/20 08:18:15;;;;;;;16.10;7.13;;;;;;;29.88;38.66;101544.50;5018753;28;20030;-44
2022/07/20 08:20:40;;;;;;;14.10;7.70;;;;;;;29.79;38.59;101556.81;5038687;28;20504;-45
2022/07/20 08:23:06;;;;;;;14.53;7.87;;;;;;;29.95;39.08;101560.84;5039446;28;20052;-46
2022/07/20 08:25:32;;;;;;;21.42;7.78;;;;;;;30.12;38.97;101558.31;5048434;28;20300;-46
2022/07/20 08:28:18;;;;;;;11.27;7.30;;;;;;;30.08;39.15;101558.78;5043518;28;20083;-45
2022/07/20 08:30:46;;;;;;;14.10;7.30;;;;;;;30.07;37.71;101570.78;5034343;28;20652;-44
2022/07/20 08:33:12;;;;;;;15.52;8.35;;;;;;;30.09;38.04;101584.25;5036502;28;20112;-44
2022/07/20 08:35:38;;;;;;;15.20;7.65;;;;;;;30.37;38.27;101582.88;5035937;28;20056;-45
2022/07/20 08:38:05;;;;;;;12.35;7.22;;;;;;;30.62;37.15;101588.22;5033864;28;20085;-45
2022/07/20 08:40:31;;;;;;;11.07;7.00;;;;;;;30.69;37.39;101599.09;5037095;28;20088;-44
2022/07/20 08:42:57;;;;;;;13.23;7.57;;;;;;;30.65;37.00;101606.13;5017768;28;20056;-44
2022/07/20 08:45:22;;;;;;;14.02;7.20;;;;;;;30.82;37.21;101601.63;5030785;28;20311;-45
2022/07/20 08:47:50;;;;;;;14.02;7.43;;;;;;;30.89;37.11;101591.38;5035013;28;20075;-44
2022/07/20 08:50:24;;;;;;;11.77;7.53;;;;;;;30.95;36.52;101590.47;5030620;28;20057;-44
2022/07/20 08:52:50;;;;;;;12.90;7.47;;;;;;;30.97;36.42;101588.31;5029636;28;20475;-46
2022/07/20 08:55:15;;;;;;;13.48;7.60;;;;;;;31.18;36.00;101588.84;5028347;28;20226;-44
2022/07/20 08:57:42;;;;;;;12.95;8.13;;;;;;;31.12;35.37;101578.81;5031494;28;20031;-46
2022/07/20 09:00:08;;;;;;;11.60;7.22;;;;;;;31.08;36.63;101572.13;5029737;28;20064;-45
2022/07/20 09:02:49;;;;;;;15.35;7.38;;;;;;;30.99;36.78;101558.75;5029925;28;20025;-44
2022/07/20 09:05:15;;;;;;;13.73;7.35;;;;;;;30.72;37.02;101541.84;5033258;28;20026;-44
2022/07/20 09:07:45;;;;;;;17.13;7.55;;;;;;;30.60;37.19;101561.03;5032136;28;20429;-44
2022/07/20 09:10:17;;;;;;;11.93;7.45;;;;;;;30.44;38.98;101580.88;5032679;28;20023;-46
2022/07/20 09:12:59;;;;;;;15.27;7.25;;;;;;;30.43;38.43;101587.44;5029323;28;20041;-44
2022/07/20 09:15:30;;;;;;;12.10;7.20;;;;;;;30.14;38.75;101586.31;5033031;28;20124;-46
2022/07/20 09:18:09;;;;;;;15.75;7.70;;;;;;;30.19;38.08;101642.09;5031549;28;20326;-45
2022/07/20 09:20:37;;;;;;;11.90;6.93;;;;;;;30.24;39.12;101664.19;5027889;28;20030;-44
2022/07/20 09:23:10;;;;;;;14.82;8.00;;;;;;;30.00;38.56;101673.31;5019948;28;20630;-45
2022/07/20 09:25:36;;;;;;;13.38;7.00;;;;;;;29.99;39.61;101680.66;5021348;28;20091;-46
2022/07/20 09:28:02;;;;;;;10.98;6.78;;;;;;;30.00;38.76;101687.00;5031081;28;20033;-48
2022/07/20 09:30:27;;;;;;;14.38;7.85;;;;;;;30.05;39.20;101677.03;5030342;28;20079;-47
2022/07/20 09:32:58;;;;;;;12.63;7.25;;;;;;;30.19;38.11;101674.97;5034179;28;20056;-47
2022/07/20 09:35:26;;;;;;;15.80;8.00;;;;;;;30.38;38.18;101653.09;5032410;28;20026;-43
2022/07/20 09:37:54;;;;;;;;;;;;;;;30.77;38.27;101659.09;5034660;28;20030;-44
2022/07/20 09:40:19;;;;;;;14.45;8.13;;;;;;;30.76;36.96;101652.78;5034652;28;19964;-44
2022/07/20 09:42:46;;;;;;;16.17;7.78;;;;;;;30.73;37.96;101655.97;5038364;28;20421;-46
2022/07/20 09:45:28;;;;;;;13.43;7.72;;;;;;;30.92;38.16;101650.44;5030798;28;20028;-46
2022/07/20 09:48:03;;;;;;;13.20;7.70;;;;;;;30.93;37.66;101652.09;5026986;28;20052;-44
2022/07/20 09:50:30;;;;;;;13.38;7.22;;;;;;;31.02;36.76;101649.88;5019344;28;20040;-44
2022/07/20 09:52:56;;;;;;;10.68;7.20;;;;;;;31.35;35.85;101638.38;5036194;28;20048;-45
2022/07/20 09:55:22;;;;;;;14.18;6.95;;;;;;;31.79;35.89;101638.03;5033204;28;20025;-44
2022/07/20 09:57:50;;;;;;;9.18;6.40;;;;;;;31.89;34.88;101627.25;5032889;28;20086;-45
2022/07/20 10:00:15;;;;;;;10.18;6.50;;;;;;;32.17;35.02;101632.00;5033886;28;20028;-47
2022/07/20 10:02:43;;;;;;;10.02;6.47;;;;;;;32.33;33.77;101635.91;5033426;28;20139;-44
2022/07/20 10:05:10;;;;;;;11.15;6.65;;;;;;;32.50;34.36;101638.72;5032270;28;20056;-46
2022/07/20 10:07:35;;;;;;;10.52;6.22;;;;;;;32.46;33.67;101643.03;5029060;28;20036;-46
2022/07/20 10:10:01;;;;;;;11.50;6.18;;;;;;;32.22;33.40;101654.09;5034448;28;20033;-45
2022/07/20 10:12:27;;;;;;;12.40;6.80;;;;;;;32.36;33.45;101660.19;5034342;28;20424;-45
2022/07/20 10:14:54;;;;;;;12.30;6.55;;;;;;;32.64;34.02;101669.53;5032361;28;20013;-45
2022/07/20 10:17:19;;;;;;;11.80;6.57;;;;;;;32.75;33.36;101654.06;5030278;28;20029;-44
2022/07/20 10:19:46;;;;;;;10.77;6.32;;;;;;;33.15;33.35;101639.34;5035641;28;20466;-44
2022/07/20 10:22:12;;;;;;;13.80;6.40;;;;;;;33.33;33.02;101639.13;5018446;28;20059;-46
2022/07/20 10:24:39;;;;;;;11.82;6.35;;;;;;;33.59;31.95;101636.75;5037215;28;20069;-44
2022/07/20 10:27:16;;;;;;;12.18;6.97;;;;;;;33.50;32.76;101636.34;5033204;28;20219;-46
2022/07/20 10:29:44;;;;;;;10.23;6.38;;;;;;;33.60;31.75;101632.09;5024478;28;20029;-48
2022/07/20 10:32:10;;;;;;;12.13;6.28;;;;;;;33.81;30.72;101623.06;5028174;28;20108;-45
2022/07/20 10:34:44;;;;;;;10.27;5.80;;;;;;;34.10;31.08;101637.47;5044375;28;20057;-45
2022/07/20 10:37:25;;;;;;;6.57;5.57;;;;;;;34.20;31.38;101625.75;5034562;28;20022;-47
2022/07/20 10:39:56;;;;;;;7.70;5.57;;;;;;;34.33;30.49;101623.72;5036977;28;20097;-45
2022/07/20 10:42:25;;;;;;;14.05;5.90;;;;;;;34.28;29.54;101624.50;5024018;28;20041;-45
2022/07/20 10:44:51;;;;;;;;;;;;;;;34.74;31.00;101630.53;5032709;28;20035;-43
2022/07/20 10:47:45;;;;;;;11.85;5.78;;;;;;;34.55;30.77;101627.25;5043424;28;19913;-47
2022/07/20 10:50:31;;;;;;;8.13;6.10;;;;;;;34.62;30.16;101627.03;5020187;28;20029;-45
2022/07/20 10:53:16;;;;;;;10.13;5.07;;;;;;;34.82;30.29;101630.06;5041378;28;20052;-45
2022/07/20 10:55:41;;;;;;;11.15;5.78;;;;;;;35.10;28.89;101624.47;5038752;28;20081;-45
2022/07/20 10:58:13;;;;;;;9.87;5.60;;;;;;;35.15;28.66;101630.84;5033511;28;20086;-44
2022/07/20 11:00:41;;;;;;;6.75;5.13;;;;;;;35.29;28.61;101641.50;5046473;28;20028;-45
2022/07/20 11:03:23;;;;;;;8.63;5.00;;;;;;;35.43;29.36;101628.91;5040038;28;20315;-45
2022/07/20 11:06:05;;;;;;;12.43;5.97;;;;;;;35.45;28.77;101643.25;5004158;28;20088;-45
2022/07/20 11:08:30;;;;;;;7.07;5.22;;;;;;;35.64;29.22;101640.06;5025511;28;20045;-44
2022/07/20 11:10:56;;;;;;;9.52;5.18;;;;;;;35.79;28.30;101642.97;5032586;28;20372;-47
2022/07/20 11:13:22;;;;;;;9.05;5.22;;;;;;;35.79;28.01;101637.44;5033345;28;20467;-45
2022/07/20 11:15:50;;;;;;;10.40;5.38;;;;;;;36.04;27.46;101619.28;5032815;28;20036;-44